sensor_id;sensor_type;location;lat;lon;timestamp;pressure;altitude;pressure_sealevel;temperature;humidity
40075;BME280;26529;51.530;11.754;2022-09-09T00:02:27;99658.34;;;18.72;53.09
40075;BME280;26529;51.530;11.754;2022-09-09T00:04:33;99653.34;;;18.67;53.19
40075;BME280;26529;51.530;11.754;2022-09-09T00:09:47;99644.63;;;18.65;53.22
40075;BME280;26529;51.530;11.754;2022-09-09T00:12:48;99646.56;;;18.63;53.35
40075;BME280;26529;51.530;11.754;2022-09-09T00:15:12;99644.09;;;18.60;53.39
40075;BME280;26529;51.530;11.754;2022-09-09T00:22:51;99650.38;;;18.59;53.21
40075;BME280;26529;51.530;11.754;2022-09-09T00:25:28;99651.56;;;18.55;53.54
40075;BME280;26529;51.530;11.754;2022-09-09T00:27:56;99650.38;;;18.59;53.24
40075;BME280;26529;51.530;11.754;2022-09-09T00:30:25;99647.19;;;18.54;53.28
40075;BME280;26529;51.530;11.754;2022-09-09T00:32:55;99648.38;;;18.50;53.46
40075;BME280;26529;51.530;11.754;2022-09-09T00:35:33;99645.84;;;18.48;53.39
40075;BME280;26529;51.530;11.754;2022-09-09T00:38:05;99652.97;;;18.48;53.65
40075;BME280;26529;51.530;11.754;2022-09-09T00:40:37;99650.31;;;18.48;53.39
40075;BME280;26529;51.530;11.754;2022-09-09T00:45:40;99660.59;;;18.39;53.53
40075;BME280;26529;51.530;11.754;2022-09-09T00:48:09;99649.97;;;18.39;53.44
40075;BME280;26529;51.530;11.754;2022-09-09T00:50:39;99654.13;;;18.43;53.49
40075;BME280;26529;51.530;11.754;2022-09-09T00:53:29;99654.78;;;18.34;53.56
40075;BME280;26529;51.530;11.754;2022-09-09T00:56:11;99654.78;;;18.34;53.68
40075;BME280;26529;51.530;11.754;2022-09-09T00:58:38;99658.91;;;18.38;53.76
40075;BME280;26529;51.530;11.754;2022-09-09T01:01:04;99655.63;;;18.35;53.41
40075;BME280;26529;51.530;11.754;2022-09-09T01:11:04;99664.09;;;18.27;53.73
40075;BME280;26529;51.530;11.754;2022-09-09T01:13:31;99654.16;;;18.30;53.52
40075;BME280;26529;51.530;11.754;2022-09-09T01:16:03;99656.91;;;18.29;53.58
40075;BME280;26529;51.530;11.754;2022-09-09T01:18:33;99658.78;;;18.27;53.60
40075;BME280;26529;51.530;11.754;2022-09-09T01:21:06;99658.78;;;18.27;53.57
40075;BME280;26529;51.530;11.754;2022-09-09T01:28:43;99655.41;;;18.25;53.63
40075;BME280;26529;51.530;11.754;2022-09-09T01:31:14;99655.63;;;18.22;53.71
40075;BME280;26529;51.530;11.754;2022-09-09T01:33:44;99663.38;;;18.25;53.56
40075;BME280;26529;51.530;11.754;2022-09-09T01:36:14;99659.25;;;18.21;53.74
40075;BME280;26529;51.530;11.754;2022-09-09T01:38:49;99661.16;;;18.19;53.66
40075;BME280;26529;51.530;11.754;2022-09-09T01:41:15;99655.84;;;18.19;53.68
40075;BME280;26529;51.530;11.754;2022-09-09T01:43:53;99654.03;;;18.19;53.59
40075;BME280;26529;51.530;11.754;2022-09-09T01:46:19;99656.06;;;18.15;53.75
40075;BME280;26529;51.530;11.754;2022-09-09T01:48:46;99649.06;;;18.14;53.70
40075;BME280;26529;51.530;11.754;2022-09-09T01:51:12;99652.44;;;18.16;53.48
40075;BME280;26529;51.530;11.754;2022-09-09T01:53:39;99647.25;;;18.15;53.67
40075;BME280;26529;51.530;11.754;2022-09-09T01:58:54;99646.91;;;18.20;53.46
40075;BME280;26529;51.530;11.754;2022-09-09T02:01:35;99641.94;;;18.15;53.80
40075;BME280;26529;51.530;11.754;2022-09-09T02:04:17;99642.25;;;18.10;53.54
40075;BME280;26529;51.530;11.754;2022-09-09T02:06:44;99644.19;;;18.08;53.61
40075;BME280;26529;51.530;11.754;2022-09-09T02:09:21;99640.97;;;18.03;53.76
40075;BME280;26529;51.530;11.754;2022-09-09T02:11:48;99647.13;;;18.03;53.56
40075;BME280;26529;51.530;11.754;2022-09-09T02:14:27;99643.41;;;18.06;53.68
40075;BME280;26529;51.530;11.754;2022-09-09T02:16:55;99649.00;;;18.01;53.87
40075;BME280;26529;51.530;11.754;2022-09-09T02:19:32;99646.47;;;18.00;53.80
40075;BME280;26529;51.530;11.754;2022-09-09T02:22:13;99648.38;;;17.98;53.72
40075;BME280;26529;51.530;11.754;2022-09-09T02:24:39;99647.31;;;18.00;53.82
40075;BME280;26529;51.530;11.754;2022-09-09T02:27:15;99655.38;;;17.99;53.59
40075;BME280;26529;51.530;11.754;2022-09-09T02:29:43;99650.28;;;17.96;53.80
40075;BME280;26529;51.530;11.754;2022-09-09T02:32:14;99650.28;;;17.96;53.85
40075;BME280;26529;51.530;11.754;2022-09-09T02:34:45;99658.97;;;17.98;53.83
40075;BME280;26529;51.530;11.754;2022-09-09T02:37:13;99646.69;;;17.97;53.76
40075;BME280;26529;51.530;11.754;2022-09-09T02:39:44;99646.69;;;17.97;53.64
40075;BME280;26529;51.530;11.754;2022-09-09T02:42:13;99652.22;;;17.94;53.53
40075;BME280;26529;51.530;11.754;2022-09-09T02:44:40;99650.38;;;17.94;53.76
40075;BME280;26529;51.530;11.754;2022-09-09T02:49:38;99654.88;;;17.94;53.69
40075;BME280;26529;51.530;11.754;2022-09-09T02:52:09;99648.16;;;17.88;53.93
40075;BME280;26529;51.530;11.754;2022-09-09T02:54:39;99649.00;;;17.88;53.87
40075;BME280;26529;51.530;11.754;2022-09-09T02:59:38;99650.91;;;17.86;53.83
40075;BME280;26529;51.530;11.754;2022-09-09T03:02:04;99655.78;;;17.93;53.65
40075;BME280;26529;51.530;11.754;2022-09-09T03:04:31;99650.91;;;17.86;53.76
40075;BME280;26529;51.530;11.754;2022-09-09T03:06:57;99646.78;;;17.82;53.87
40075;BME280;26529;51.530;11.754;2022-09-09T03:09:23;99647.75;;;17.81;53.84
40075;BME280;26529;51.530;11.754;2022-09-09T03:11:49;99655.88;;;17.78;54.08
40075;BME280;26529;51.530;11.754;2022-09-09T03:14:15;99656.53;;;17.82;53.80
40075;BME280;26529;51.530;11.754;2022-09-09T03:16:42;99656.75;;;17.79;53.97
40075;BME280;26529;51.530;11.754;2022-09-09T03:19:08;99655.06;;;17.77;53.86
40075;BME280;26529;51.530;11.754;2022-09-09T03:21:34;99658.53;;;17.78;53.92
40075;BME280;26529;51.530;11.754;2022-09-09T03:24:01;99660.13;;;17.81;53.96
40075;BME280;26529;51.530;11.754;2022-09-09T03:26:29;99657.47;;;17.81;53.93
40075;BME280;26529;51.530;11.754;2022-09-09T03:28:56;99658.94;;;17.72;53.78
40075;BME280;26529;51.530;11.754;2022-09-09T03:31:22;99655.34;;;17.73;53.91
40075;BME280;26529;51.530;11.754;2022-09-09T03:33:48;99654.50;;;17.72;53.83
40075;BME280;26529;51.530;11.754;2022-09-09T03:36:15;99658.94;;;17.72;53.86
40075;BME280;26529;51.530;11.754;2022-09-09T03:38:41;99655.56;;;17.70;53.89
40075;BME280;26529;51.530;11.754;2022-09-09T03:41:07;99649.28;;;17.71;53.88
40075;BME280;26529;51.530;11.754;2022-09-09T03:43:33;99653.66;;;17.72;53.84
40075;BME280;26529;51.530;11.754;2022-09-09T03:45:58;99654.69;;;17.69;53.86
40075;BME280;26529;51.530;11.754;2022-09-09T03:48:26;99651.31;;;17.67;53.83
40075;BME280;26529;51.530;11.754;2022-09-09T03:50:53;99647.50;;;17.71;53.68
40075;BME280;26529;51.530;11.754;2022-09-09T03:53:20;99648.09;;;17.62;53.92
40075;BME280;26529;51.530;11.754;2022-09-09T03:55:47;99638.78;;;17.69;53.68
40075;BME280;26529;51.530;11.754;2022-09-09T03:58:13;99641.16;;;17.74;53.69
40075;BME280;26529;51.530;11.754;2022-09-09T04:00:39;99649.53;;;17.68;53.76
40075;BME280;26529;51.530;11.754;2022-09-09T04:03:08;99646.00;;;17.67;53.89
40075;BME280;26529;51.530;11.754;2022-09-09T04:05:34;99651.31;;;17.67;53.91
40075;BME280;26529;51.530;11.754;2022-09-09T04:07:59;99648.00;;;17.63;53.67
40075;BME280;26529;51.530;11.754;2022-09-09T04:10:24;99645.59;;;17.60;53.87
40075;BME280;26529;51.530;11.754;2022-09-09T04:12:52;99651.53;;;17.64;53.92
40075;BME280;26529;51.530;11.754;2022-09-09T04:15:18;99654.47;;;17.59;54.13
40075;BME280;26529;51.530;11.754;2022-09-09T04:17:44;99659.03;;;17.57;54.10
40075;BME280;26529;51.530;11.754;2022-09-09T04:20:10;99663.59;;;17.55;54.04
40075;BME280;26529;51.530;11.754;2022-09-09T04:22:37;99665.50;;;17.53;54.05
40075;BME280;26529;51.530;11.754;2022-09-09T04:25:05;99666.03;;;17.58;54.05
40075;BME280;26529;51.530;11.754;2022-09-09T04:27:31;99664.63;;;17.53;54.09
40075;BME280;26529;51.530;11.754;2022-09-09T04:29:56;99667.19;;;17.54;54.14
40075;BME280;26529;51.530;11.754;2022-09-09T04:32:24;99672.59;;;17.53;54.13
40075;BME280;26529;51.530;11.754;2022-09-09T04:34:52;99672.50;;;17.54;54.00
40075;BME280;26529;51.530;11.754;2022-09-09T04:37:17;99666.44;;;17.52;54.12
40075;BME280;26529;51.530;11.754;2022-09-09T04:39:43;99665.69;;;17.50;54.07
40075;BME280;26529;51.530;11.754;2022-09-09T04:42:08;99660.94;;;17.55;53.82
40075;BME280;26529;51.530;11.754;2022-09-09T04:44:35;99673.47;;;17.53;54.05
40075;BME280;26529;51.530;11.754;2022-09-09T04:47:01;99671.94;;;17.49;54.04
40075;BME280;26529;51.530;11.754;2022-09-09T04:49:26;99668.25;;;17.52;54.14
40075;BME280;26529;51.530;11.754;2022-09-09T04:51:53;99680.31;;;17.56;53.91
40075;BME280;26529;51.530;11.754;2022-09-09T04:54:19;99668.44;;;17.48;54.30
40075;BME280;26529;51.530;11.754;2022-09-09T04:56:45;99673.47;;;17.53;53.83
40075;BME280;26529;51.530;11.754;2022-09-09T04:59:11;99671.22;;;17.47;54.08
40075;BME280;26529;51.530;11.754;2022-09-09T05:01:42;99669.47;;;17.46;54.37
40075;BME280;26529;51.530;11.754;2022-09-09T05:04:09;99671.22;;;17.47;54.19
40075;BME280;26529;51.530;11.754;2022-09-09T05:06:34;99682.66;;;17.47;54.19
40075;BME280;26529;51.530;11.754;2022-09-09T05:09:01;99676.69;;;17.44;54.22
40075;BME280;26529;51.530;11.754;2022-09-09T05:11:29;99677.44;;;17.46;54.24
40075;BME280;26529;51.530;11.754;2022-09-09T05:14:07;99680.84;;;17.48;54.26
40075;BME280;26529;51.530;11.754;2022-09-09T05:16:34;99674.59;;;17.49;54.10
40075;BME280;26529;51.530;11.754;2022-09-09T05:18:59;99668.66;;;17.45;54.11
40075;BME280;26529;51.530;11.754;2022-09-09T05:21:30;99667.38;;;17.51;53.92
40075;BME280;26529;51.530;11.754;2022-09-09T05:23:56;99667.38;;;17.51;54.10
40075;BME280;26529;51.530;11.754;2022-09-09T05:26:23;99674.38;;;17.52;53.93
40075;BME280;26529;51.530;11.754;2022-09-09T05:28:51;99671.72;;;17.52;54.16
40075;BME280;26529;51.530;11.754;2022-09-09T05:31:17;99671.84;;;17.51;54.01
40075;BME280;26529;51.530;11.754;2022-09-09T05:33:45;99678.75;;;17.53;54.06
40075;BME280;26529;51.530;11.754;2022-09-09T05:36:13;99678.00;;;17.51;54.03
40075;BME280;26529;51.530;11.754;2022-09-09T05:38:39;99676.09;;;17.53;54.09
40075;BME280;26529;51.530;11.754;2022-09-09T05:41:06;99681.59;;;17.50;54.40
40075;BME280;26529;51.530;11.754;2022-09-09T05:43:32;99679.91;;;17.49;54.38
40075;BME280;26529;51.530;11.754;2022-09-09T05:46:01;99682.66;;;17.47;54.32
40075;BME280;26529;51.530;11.754;2022-09-09T05:48:29;99685.19;;;17.49;54.50
40075;BME280;26529;51.530;11.754;2022-09-09T05:51:14;99690.50;;;17.49;54.44
40075;BME280;26529;51.530;11.754;2022-09-09T05:53:41;99690.50;;;17.49;54.47
40075;BME280;26529;51.530;11.754;2022-09-09T05:56:09;99698.38;;;17.51;54.23
40075;BME280;26529;51.530;11.754;2022-09-09T05:58:35;99694.75;;;17.52;54.36
40075;BME280;26529;51.530;11.754;2022-09-09T06:01:08;99692.19;;;17.50;54.54
40075;BME280;26529;51.530;11.754;2022-09-09T06:03:35;99693.16;;;17.49;54.37
40075;BME280;26529;51.530;11.754;2022-09-09T06:06:02;99700.38;;;17.47;54.63
40075;BME280;26529;51.530;11.754;2022-09-09T06:08:30;99697.50;;;17.50;54.44
40075;BME280;26529;51.530;11.754;2022-09-09T06:11:00;99694.19;;;17.46;54.56
40075;BME280;26529;51.530;11.754;2022-09-09T06:13:28;99696.84;;;17.46;54.54
40075;BME280;26529;51.530;11.754;2022-09-09T06:15:53;99693.25;;;17.47;54.37
40075;BME280;26529;51.530;11.754;2022-09-09T06:18:19;99700.63;;;17.42;54.86
40075;BME280;26529;51.530;11.754;2022-09-09T06:20:54;99692.59;;;17.44;54.63
40075;BME280;26529;51.530;11.754;2022-09-09T06:23:20;99690.81;;;17.44;54.78
40075;BME280;26529;51.530;11.754;2022-09-09T06:25:45;99694.41;;;17.43;54.74
40075;BME280;26529;51.530;11.754;2022-09-09T06:28:11;99690.91;;;17.43;54.92
40075;BME280;26529;51.530;11.754;2022-09-09T06:30:36;99687.50;;;17.41;55.02
40075;BME280;26529;51.530;11.754;2022-09-09T06:33:02;99687.50;;;17.41;54.92
40075;BME280;26529;51.530;11.754;2022-09-09T06:35:28;99685.38;;;17.46;54.75
40075;BME280;26529;51.530;11.754;2022-09-09T06:37:54;99688.16;;;17.44;54.96
40075;BME280;26529;51.530;11.754;2022-09-09T06:40:19;99686.56;;;17.42;55.28
40075;BME280;26529;51.530;11.754;2022-09-09T06:42:46;99690.16;;;17.41;55.02
40075;BME280;26529;51.530;11.754;2022-09-09T06:45:31;99682.09;;;17.42;54.94
40075;BME280;26529;51.530;11.754;2022-09-09T06:47:57;99688.34;;;17.41;55.22
40075;BME280;26529;51.530;11.754;2022-09-09T06:50:23;99690.03;;;17.42;55.08
40075;BME280;26529;51.530;11.754;2022-09-09T06:52:49;99690.91;;;17.43;55.06
40075;BME280;26529;51.530;11.754;2022-09-09T06:55:15;99695.25;;;17.44;55.44
40075;BME280;26529;51.530;11.754;2022-09-09T06:57:41;99693.34;;;17.46;55.06
40075;BME280;26529;51.530;11.754;2022-09-09T07:00:12;99693.06;;;17.51;54.78
40075;BME280;26529;51.530;11.754;2022-09-09T07:02:39;99699.75;;;17.56;54.85
40075;BME280;26529;51.530;11.754;2022-09-09T07:05:08;99698.06;;;17.55;54.87
40075;BME280;26529;51.530;11.754;2022-09-09T07:07:33;99702.41;;;17.56;54.79
40075;BME280;26529;51.530;11.754;2022-09-09T07:10:00;99700.69;;;17.55;54.92
40075;BME280;26529;51.530;11.754;2022-09-09T07:12:26;99701.44;;;17.57;54.99
40075;BME280;26529;51.530;11.754;2022-09-09T07:14:56;99693.31;;;17.60;55.10
40075;BME280;26529;51.530;11.754;2022-09-09T07:17:22;99691.56;;;17.59;55.12
40075;BME280;26529;51.530;11.754;2022-09-09T07:19:47;99693.31;;;17.60;55.18
40075;BME280;26529;51.530;11.754;2022-09-09T07:22:14;99698.38;;;17.63;55.37
40075;BME280;26529;51.530;11.754;2022-09-09T07:24:40;99700.84;;;17.67;55.14
40075;BME280;26529;51.530;11.754;2022-09-09T07:27:06;99704.34;;;17.67;55.25
40075;BME280;26529;51.530;11.754;2022-09-09T07:29:31;99712.09;;;17.70;55.25
40075;BME280;26529;51.530;11.754;2022-09-09T07:31:57;99706.91;;;17.69;55.39
40075;BME280;26529;51.530;11.754;2022-09-09T07:34:28;99706.97;;;17.67;55.53
40075;BME280;26529;51.530;11.754;2022-09-09T07:36:55;99714.84;;;17.69;55.28
40075;BME280;26529;51.530;11.754;2022-09-09T07:39:22;99710.69;;;17.65;55.47
40075;BME280;26529;51.530;11.754;2022-09-09T07:41:51;99710.69;;;17.65;55.30
40075;BME280;26529;51.530;11.754;2022-09-09T07:44:21;99713.25;;;17.66;55.37
40075;BME280;26529;51.530;11.754;2022-09-09T07:46:49;99712.28;;;17.67;55.48
40075;BME280;26529;51.530;11.754;2022-09-09T07:49:19;99712.19;;;17.69;55.60
40075;BME280;26529;51.530;11.754;2022-09-09T07:51:46;99708.81;;;17.67;55.60
40075;BME280;26529;51.530;11.754;2022-09-09T07:54:14;99711.97;;;17.72;55.55
40075;BME280;26529;51.530;11.754;2022-09-09T07:56:42;99717.28;;;17.72;55.48
40075;BME280;26529;51.530;11.754;2022-09-09T07:59:09;99711.78;;;17.75;55.40
40075;BME280;26529;51.530;11.754;2022-09-09T08:01:38;99709.03;;;17.76;55.32
40075;BME280;26529;51.530;11.754;2022-09-09T08:04:09;99717.75;;;17.79;55.39
40075;BME280;26529;51.530;11.754;2022-09-09T08:06:36;99715.00;;;17.80;55.41
40075;BME280;26529;51.530;11.754;2022-09-09T08:09:04;99722.09;;;17.80;55.57
40075;BME280;26529;51.530;11.754;2022-09-09T08:11:31;99718.38;;;17.82;55.66
40075;BME280;26529;51.530;11.754;2022-09-09T08:13:59;99721.88;;;17.83;55.74
40075;BME280;26529;51.530;11.754;2022-09-09T08:16:26;99722.94;;;17.80;55.89
40075;BME280;26529;51.530;11.754;2022-09-09T08:18:52;99721.78;;;17.84;55.85
40075;BME280;26529;51.530;11.754;2022-09-09T08:21:26;99719.13;;;17.84;56.13
40075;BME280;26529;51.530;11.754;2022-09-09T08:23:55;99729.53;;;17.87;55.71
40075;BME280;26529;51.530;11.754;2022-09-09T08:26:21;99726.75;;;17.89;55.65
40075;BME280;26529;51.530;11.754;2022-09-09T08:28:52;99730.06;;;17.93;55.99
40075;BME280;26529;51.530;11.754;2022-09-09T08:31:20;99729.88;;;17.96;55.70
40075;BME280;26529;51.530;11.754;2022-09-09T08:33:47;99736.00;;;17.96;55.57
40075;BME280;26529;51.530;11.754;2022-09-09T08:36:14;99730.41;;;18.01;55.47
40075;BME280;26529;51.530;11.754;2022-09-09T08:38:40;99730.19;;;18.04;55.48
40075;BME280;26529;51.530;11.754;2022-09-09T08:41:17;99727.38;;;18.07;55.43
40075;BME280;26529;51.530;11.754;2022-09-09T08:43:50;99737.78;;;18.10;55.44
40075;BME280;26529;51.530;11.754;2022-09-09T08:46:20;99724.28;;;18.13;55.45
40075;BME280;26529;51.530;11.754;2022-09-09T08:48:56;99729.41;;;18.16;55.64
40075;BME280;26529;51.530;11.754;2022-09-09T08:51:27;99730.03;;;18.20;55.86
40075;BME280;26529;51.530;11.754;2022-09-09T08:53:54;99732.47;;;18.23;55.59
40075;BME280;26529;51.530;11.754;2022-09-09T08:56:23;99728.97;;;18.23;55.80
40075;BME280;26529;51.530;11.754;2022-09-09T08:58:53;99732.19;;;18.28;55.69
40075;BME280;26529;51.530;11.754;2022-09-09T09:01:30;99724.00;;;18.31;55.94
40075;BME280;26529;51.530;11.754;2022-09-09T09:09:17;99733.75;;;18.43;56.00
40075;BME280;26529;51.530;11.754;2022-09-09T09:16:48;99732.16;;;18.54;56.44
40075;BME280;26529;51.530;11.754;2022-09-09T09:19:16;99718.69;;;18.57;56.55
40075;BME280;26529;51.530;11.754;2022-09-09T09:21:44;99721.09;;;18.60;57.06
40075;BME280;26529;51.530;11.754;2022-09-09T09:24:16;99732.25;;;18.65;57.25
40075;BME280;26529;51.530;11.754;2022-09-09T09:26:43;99726.75;;;18.68;56.91
40075;BME280;26529;51.530;11.754;2022-09-09T09:29:14;99729.81;;;18.75;56.94
40075;BME280;26529;51.530;11.754;2022-09-09T09:31:48;99726.81;;;18.80;57.16
40075;BME280;26529;51.530;11.754;2022-09-09T09:34:16;99724.59;;;18.87;57.28
40075;BME280;26529;51.530;11.754;2022-09-09T09:36:43;99725.41;;;18.87;57.21
40075;BME280;26529;51.530;11.754;2022-09-09T09:42:11;99732.94;;;18.93;57.59
40075;BME280;26529;51.530;11.754;2022-09-09T09:44:40;99734.34;;;18.99;57.56
40075;BME280;26529;51.530;11.754;2022-09-09T09:47:12;99737.53;;;19.04;57.55
40075;BME280;26529;51.530;11.754;2022-09-09T09:49:39;99732.13;;;19.06;57.53
40075;BME280;26529;51.530;11.754;2022-09-09T09:52:15;99732.75;;;19.09;57.47
40075;BME280;26529;51.530;11.754;2022-09-09T09:54:45;99736.03;;;19.13;57.55
40075;BME280;26529;51.530;11.754;2022-09-09T09:57:11;99739.44;;;19.15;57.96
40075;BME280;26529;51.530;11.754;2022-09-09T09:59:37;99746.22;;;19.19;57.43
40075;BME280;26529;51.530;11.754;2022-09-09T10:02:24;99743.34;;;19.22;57.75
40075;BME280;26529;51.530;11.754;2022-09-09T10:05:06;99725.47;;;19.24;57.60
40075;BME280;26529;51.530;11.754;2022-09-09T10:07:35;99724.31;;;19.29;57.53
40075;BME280;26529;51.530;11.754;2022-09-09T10:10:02;99730.25;;;19.32;57.60
40075;BME280;26529;51.530;11.754;2022-09-09T10:12:30;99736.19;;;19.36;57.44
40075;BME280;26529;51.530;11.754;2022-09-09T10:17:50;99726.03;;;19.41;57.48
40075;BME280;26529;51.530;11.754;2022-09-09T10:20:32;99720.50;;;19.44;57.53
40075;BME280;26529;51.530;11.754;2022-09-09T10:23:05;99715.91;;;19.46;57.37
40075;BME280;26529;51.530;11.754;2022-09-09T10:25:39;99720.16;;;19.49;57.50
40075;BME280;26529;51.530;11.754;2022-09-09T10:28:18;99721.03;;;19.49;57.55
40075;BME280;26529;51.530;11.754;2022-09-09T10:36:08;99707.03;;;19.59;57.27
40075;BME280;26529;51.530;11.754;2022-09-09T10:38:41;99718.41;;;19.61;57.35
40075;BME280;26529;51.530;11.754;2022-09-09T10:49:10;99719.63;;;19.68;57.25
40075;BME280;26529;51.530;11.754;2022-09-09T10:51:43;99716.88;;;19.70;57.20
40075;BME280;26529;51.530;11.754;2022-09-09T10:54:19;99722.59;;;19.76;57.41
40075;BME280;26529;51.530;11.754;2022-09-09T10:56:49;99717.03;;;19.79;57.53
40075;BME280;26529;51.530;11.754;2022-09-09T10:59:20;99722.13;;;19.83;57.45
40075;BME280;26529;51.530;11.754;2022-09-09T11:02:01;99717.41;;;19.86;57.48
40075;BME280;26529;51.530;11.754;2022-09-09T11:04:34;99714.63;;;19.88;57.33
40075;BME280;26529;51.530;11.754;2022-09-09T11:07:05;99713.44;;;19.92;57.36
40075;BME280;26529;51.530;11.754;2022-09-09T11:09:33;99707.78;;;19.97;57.38
40075;BME280;26529;51.530;11.754;2022-09-09T11:12:02;99710.34;;;19.98;57.49
40075;BME280;26529;51.530;11.754;2022-09-09T11:16:54;99698.16;;;20.07;57.09
40075;BME280;26529;51.530;11.754;2022-09-09T11:21:47;99695.75;;;20.15;57.16
40075;BME280;26529;51.530;11.754;2022-09-09T11:24:25;99704.44;;;20.17;57.21
40075;BME280;26529;51.530;11.754;2022-09-09T11:26:57;99713.91;;;20.22;57.19
40075;BME280;26529;51.530;11.754;2022-09-09T11:32:23;99711.59;;;20.28;57.24
40075;BME280;26529;51.530;11.754;2022-09-09T11:35:00;99707.84;;;20.31;57.17
40075;BME280;26529;51.530;11.754;2022-09-09T11:37:53;99702.31;;;20.34;56.90
40075;BME280;26529;51.530;11.754;2022-09-09T11:40:23;99709.94;;;20.39;56.76
40075;BME280;26529;51.530;11.754;2022-09-09T11:42:49;99703.53;;;20.41;56.70
40075;BME280;26529;51.530;11.754;2022-09-09T11:45:25;99705.94;;;20.44;56.87
40075;BME280;26529;51.530;11.754;2022-09-09T11:47:59;99706.69;;;20.46;56.77
40075;BME280;26529;51.530;11.754;2022-09-09T11:52:50;99701.47;;;20.56;56.34
40075;BME280;26529;51.530;11.754;2022-09-09T11:55:29;99696.88;;;20.58;56.44
40075;BME280;26529;51.530;11.754;2022-09-09T11:58:04;99696.63;;;20.61;56.35
40075;BME280;26529;51.530;11.754;2022-09-09T12:00:40;99697.38;;;20.64;56.42
40075;BME280;26529;51.530;11.754;2022-09-09T12:05:51;99688.50;;;20.74;56.35
40075;BME280;26529;51.530;11.754;2022-09-09T12:08:26;99685.72;;;20.76;56.41
40075;BME280;26529;51.530;11.754;2022-09-09T12:10:53;99684.28;;;20.83;56.19
40075;BME280;26529;51.530;11.754;2022-09-09T12:13:20;99681.38;;;20.86;56.10
40075;BME280;26529;51.530;11.754;2022-09-09T12:15:48;99675.66;;;20.91;56.10
40075;BME280;26529;51.530;11.754;2022-09-09T12:18:15;99675.28;;;20.96;56.12
40075;BME280;26529;51.530;11.754;2022-09-09T12:20:52;99670.44;;;21.01;56.19
40075;BME280;26529;51.530;11.754;2022-09-09T12:23:30;99667.56;;;21.04;56.06
40075;BME280;26529;51.530;11.754;2022-09-09T12:31:16;99667.75;;;21.12;55.83
40075;BME280;26529;51.530;11.754;2022-09-09T12:33:43;99669.22;;;21.17;55.37
40075;BME280;26529;51.530;11.754;2022-09-09T12:36:15;99660.94;;;21.20;55.42
40075;BME280;26529;51.530;11.754;2022-09-09T12:38:41;99667.97;;;21.21;55.43
40075;BME280;26529;51.530;11.754;2022-09-09T12:41:18;99664.91;;;21.25;55.33
40075;BME280;26529;51.530;11.754;2022-09-09T12:43:44;99668.34;;;21.27;55.33
40075;BME280;26529;51.530;11.754;2022-09-09T12:46:12;99667.22;;;21.30;55.08
40075;BME280;26529;51.530;11.754;2022-09-09T12:48:41;99667.94;;;21.32;54.85
40075;BME280;26529;51.530;11.754;2022-09-09T12:51:18;99664.31;;;21.33;54.98
40075;BME280;26529;51.530;11.754;2022-09-09T12:53:44;99663.19;;;21.36;54.98
40075;BME280;26529;51.530;11.754;2022-09-09T12:56:18;99656.78;;;21.38;54.77
40075;BME280;26529;51.530;11.754;2022-09-09T12:58:45;99656.38;;;21.43;54.57
40075;BME280;26529;51.530;11.754;2022-09-09T13:01:18;99658.78;;;21.46;54.52
40075;BME280;26529;51.530;11.754;2022-09-09T13:03:45;99664.69;;;21.50;54.31
40075;BME280;26529;51.530;11.754;2022-09-09T13:06:13;99653.78;;;21.53;54.43
40075;BME280;26529;51.530;11.754;2022-09-09T13:08:39;99659.84;;;21.55;54.24
40075;BME280;26529;51.530;11.754;2022-09-09T13:11:22;99664.19;;;21.56;54.07
40075;BME280;26529;51.530;11.754;2022-09-09T13:13:50;99648.94;;;21.58;53.93
40075;BME280;26529;51.530;11.754;2022-09-09T13:16:26;99646.09;;;21.60;53.86
40075;BME280;26529;51.530;11.754;2022-09-09T13:18:57;99653.59;;;21.66;53.70
40075;BME280;26529;51.530;11.754;2022-09-09T13:21:36;99646.22;;;21.69;53.72
40075;BME280;26529;51.530;11.754;2022-09-09T13:24:03;99651.31;;;21.73;53.67
40075;BME280;26529;51.530;11.754;2022-09-09T13:26:29;99643.88;;;21.76;53.56
40075;BME280;26529;51.530;11.754;2022-09-09T13:28:55;99646.16;;;21.81;53.39
40075;BME280;26529;51.530;11.754;2022-09-09T13:31:33;99644.47;;;21.80;53.50
40075;BME280;26529;51.530;11.754;2022-09-09T13:33:59;99633.53;;;21.83;53.42
40075;BME280;26529;51.530;11.754;2022-09-09T13:36:31;99628.75;;;21.87;53.29
40075;BME280;26529;51.530;11.754;2022-09-09T13:38:58;99627.41;;;21.92;53.16
40075;BME280;26529;51.530;11.754;2022-09-09T13:41:33;99625.19;;;21.98;52.76
40075;BME280;26529;51.530;11.754;2022-09-09T13:44:00;99626.03;;;21.98;52.98
40075;BME280;26529;51.530;11.754;2022-09-09T13:48:55;99626.38;;;22.05;52.86
40075;BME280;26529;51.530;11.754;2022-09-09T13:51:26;99626.78;;;22.10;52.98
40075;BME280;26529;51.530;11.754;2022-09-09T13:53:53;99633.84;;;22.11;52.87
40075;BME280;26529;51.530;11.754;2022-09-09T13:56:19;99636.22;;;22.14;52.89
40075;BME280;26529;51.530;11.754;2022-09-09T13:58:45;99631.75;;;22.15;52.94
40075;BME280;26529;51.530;11.754;2022-09-09T14:01:10;99629.78;;;22.17;52.61
40075;BME280;26529;51.530;11.754;2022-09-09T14:03:36;99627.81;;;22.19;52.51
40075;BME280;26529;51.530;11.754;2022-09-09T14:06:02;99624.03;;;22.21;52.45
40075;BME280;26529;51.530;11.754;2022-09-09T14:08:27;99630.38;;;22.20;52.44
40075;BME280;26529;51.530;11.754;2022-09-09T14:11:02;99629.25;;;22.23;51.92
40075;BME280;26529;51.530;11.754;2022-09-09T14:13:27;99617.47;;;22.26;51.91
40075;BME280;26529;51.530;11.754;2022-09-09T14:15:52;99623.63;;;22.26;51.92
40075;BME280;26529;51.530;11.754;2022-09-09T14:18:18;99604.81;;;22.28;51.98
40075;BME280;26529;51.530;11.754;2022-09-09T14:20:44;99619.59;;;22.32;51.79
40075;BME280;26529;51.530;11.754;2022-09-09T14:23:10;99609.91;;;22.31;51.48